Time;durP1;ratioP1;P1;durP2;ratioP2;P2;SDS_P1;SDS_P2;PMS_P1;PMS_P2;Temp;Humidity;BMP_temperature;BMP_pressure;BME280_temperature;BME280_humidity;BME280_pressure;Samples;Min_cycle;Max_cycle;Signal;HPM_P1;HPM_P2
2023/01/24 00:02:21;;;;;;;37.85;22.02;;;3.90;99.90;;;;;;5046774;28;20475;-74
2023/01/24 00:04:47;;;;;;;38.53;22.38;;;3.80;99.90;;;;;;5039615;28;20029;-74
2023/01/24 00:07:13;;;;;;;40.78;22.70;;;3.80;99.90;;;;;;5048818;28;20060;-74
2023/01/24 00:09:39;;;;;;;38.88;22.77;;;3.80;99.90;;;;;;5049971;28;20048;-74
2023/01/24 00:12:04;;;;;;;36.78;20.70;;;3.80;99.90;;;;;;5045116;28;20013;-74
2023/01/24 00:14:30;;;;;;;36.60;21.63;;;3.80;99.90;;;;;;5045630;28;20067;-74
2023/01/24 00:16:56;;;;;;;34.83;20.42;;;3.80;99.90;;;;;;5036611;28;20028;-74
2023/01/24 00:19:21;;;;;;;37.35;21.70;;;3.80;99.90;;;;;;5049241;28;20066;-74
2023/01/24 00:21:47;;;;;;;40.92;22.88;;;3.80;99.90;;;;;;5037287;28;20134;-74
2023/01/24 00:24:12;;;;;;;40.42;22.52;;;3.80;99.90;;;;;;5049545;28;20388;-74
2023/01/24 00:26:38;;;;;;;38.83;22.80;;;3.80;99.90;;;;;;5050599;28;20059;-74
2023/01/24 00:29:04;;;;;;;40.10;22.65;;;3.80;99.90;;;;;;5048552;28;20074;-74
2023/01/24 00:31:30;;;;;;;38.58;21.75;;;3.80;99.90;;;;;;5050631;28;20015;-74
2023/01/24 00:33:56;;;;;;;38.25;22.60;;;3.70;99.90;;;;;;5049312;28;20039;-74
2023/01/24 00:36:22;;;;;;;35.33;21.17;;;3.70;99.90;;;;;;5033135;28;20017;-74
2023/01/24 00:38:47;;;;;;;36.70;21.70;;;3.80;99.90;;;;;;5046323;28;20036;-74
2023/01/24 00:41:13;;;;;;;39.85;23.13;;;3.80;99.90;;;;;;5040462;28;20026;-74
2023/01/24 00:43:39;;;;;;;36.80;21.67;;;3.70;99.90;;;;;;5027297;28;20025;-74
2023/01/24 00:46:07;;;;;;;37.47;22.15;;;3.80;99.90;;;;;;5048027;28;20280;-74
2023/01/24 00:48:32;;;;;;;37.00;21.50;;;3.80;99.90;;;;;;5041325;28;20464;-74
2023/01/24 00:50:58;;;;;;;37.50;22.38;;;3.80;99.90;;;;;;5048245;28;20059;-74
2023/01/24 00:53:25;;;;;;;40.15;22.17;;;3.80;99.90;;;;;;5042179;28;20092;-75
2023/01/24 00:55:54;;;;;;;37.33;22.55;;;3.70;99.90;;;;;;5037205;28;20052;-76
2023/01/24 00:58:20;;;;;;;41.05;23.42;;;3.70;99.90;;;;;;5049055;28;20064;-75
2023/01/24 01:00:46;;;;;;;39.50;22.10;;;3.70;99.90;;;;;;5050279;28;20070;-76
2023/01/24 01:03:15;;;;;;;39.55;22.65;;;3.70;99.90;;;;;;5040493;28;20021;-76
2023/01/24 01:05:41;;;;;;;37.97;22.13;;;3.70;99.90;;;;;;5049444;28;20390;-76
2023/01/24 01:08:08;;;;;;;37.58;22.58;;;3.70;99.90;;;;;;5048819;28;20032;-76
2023/01/24 01:10:33;;;;;;;37.60;22.42;;;3.80;99.90;;;;;;5032167;28;20111;-76
2023/01/24 01:12:59;;;;;;;38.13;21.92;;;3.80;99.90;;;;;;5032248;28;20160;-76
2023/01/24 01:15:24;;;;;;;39.72;22.35;;;3.80;99.90;;;;;;5049236;28;20025;-76
2023/01/24 01:17:50;;;;;;;40.88;23.30;;;3.80;99.90;;;;;;5049538;28;20395;-76
2023/01/24 01:20:16;;;;;;;40.38;23.15;;;3.80;99.90;;;;;;5033950;28;20060;-76
2023/01/24 01:22:41;;;;;;;44.33;23.83;;;3.80;99.90;;;;;;5036840;28;20110;-76
2023/01/24 01:25:07;;;;;;;40.67;23.30;;;3.70;99.90;;;;;;5047146;28;20025;-76
2023/01/24 01:27:33;;;;;;;38.42;22.92;;;3.70;99.90;;;;;;5048599;28;20516;-75
2023/01/24 01:29:59;;;;;;;39.15;22.50;;;3.70;99.90;;;;;;5037551;28;20095;-76
2023/01/24 01:32:24;;;;;;;39.70;22.75;;;3.70;99.90;;;;;;5043906;28;20047;-76
2023/01/24 01:34:50;;;;;;;41.10;23.30;;;3.70;99.90;;;;;;5037546;28;20104;-76
2023/01/24 01:37:15;;;;;;;39.05;23.30;;;3.70;99.90;;;;;;5048633;28;20625;-76
2023/01/24 01:39:41;;;;;;;43.55;24.17;;;3.70;99.90;;;;;;5042061;28;20049;-74
2023/01/24 01:42:07;;;;;;;40.08;24.30;;;3.70;99.90;;;;;;5047070;28;20503;-74
2023/01/24 01:44:40;;;;;;;40.30;23.63;;;3.70;99.90;;;;;;5046195;28;20361;-74
2023/01/24 01:47:32;;;;;;;39.75;23.85;;;3.70;99.90;;;;;;5036076;28;20369;-74
2023/01/24 01:50:19;;;;;;;40.40;23.90;;;3.70;99.90;;;;;;5045945;28;20084;-74
2023/01/24 01:52:44;;;;;;;41.53;24.25;;;3.60;99.90;;;;;;5046526;28;20028;-74
2023/01/24 01:55:18;;;;;;;41.25;24.23;;;3.70;99.90;;;;;;5036461;28;20028;-74
2023/01/24 01:57:46;;;;;;;41.95;23.83;;;3.70;99.90;;;;;;5045076;28;20108;-74
2023/01/24 02:00:15;;;;;;;43.35;23.80;;;3.70;99.90;;;;;;5044545;28;20044;-74
2023/01/24 02:02:48;;;;;;;39.33;23.15;;;3.70;99.90;;;;;;5044764;28;20083;-74
2023/01/24 02:05:17;;;;;;;40.88;25.02;;;3.60;99.90;;;;;;5046595;28;20048;-74
2023/01/24 02:07:49;;;;;;;42.30;24.42;;;3.70;99.90;;;;;;5050870;28;20040;-74
2023/01/24 02:10:18;;;;;;;38.47;23.20;;;3.60;99.90;;;;;;5051453;28;20036;-74
2023/01/24 02:12:46;;;;;;;37.88;22.98;;;3.70;99.90;;;;;;5048592;28;20048;-74
2023/01/24 02:18:03;;;;;;;40.63;23.33;;;3.60;99.90;;;;;;5049595;28;20595;-74
2023/01/24 02:20:45;;;;;;;40.92;24.05;;;3.60;99.90;;;;;;5051683;28;20020;-74
2023/01/24 02:23:32;;;;;;;39.28;22.55;;;3.70;99.90;;;;;;5045585;28;20113;-74
2023/01/24 02:26:11;;;;;;;37.95;23.02;;;3.70;99.90;;;;;;5045222;28;20029;-74
2023/01/24 02:28:38;;;;;;;38.17;22.60;;;3.70;99.90;;;;;;5037721;28;20022;-74
2023/01/24 02:31:04;;;;;;;38.10;22.45;;;3.60;99.90;;;;;;5046536;28;20037;-74
2023/01/24 02:33:31;;;;;;;42.03;23.50;;;3.60;99.90;;;;;;5042110;28;20021;-74
2023/01/24 02:36:21;;;;;;;39.97;23.52;;;3.60;99.90;;;;;;5052603;28;20376;-74
2023/01/24 02:38:58;;;;;;;39.03;22.95;;;3.60;99.90;;;;;;5039987;28;20099;-74
2023/01/24 02:41:29;;;;;;;40.25;23.48;;;3.60;99.90;;;;;;5033423;28;20043;-74
2023/01/24 02:44:00;;;;;;;39.03;23.08;;;3.60;99.90;;;;;;5047010;28;20480;-74
2023/01/24 02:46:29;;;;;;;38.00;22.75;;;3.60;99.90;;;;;;5049970;28;20021;-74
2023/01/24 02:48:55;;;;;;;36.03;21.73;;;3.60;99.90;;;;;;5049346;28;20025;-74
2023/01/24 02:54:04;;;;;;;36.95;22.10;;;3.60;99.90;;;;;;5052067;28;20083;-74
2023/01/24 02:59:14;;;;;;;36.17;21.02;;;3.60;99.90;;;;;;5049296;28;20454;-74
2023/01/24 03:01:40;;;;;;;34.83;21.73;;;3.60;99.90;;;;;;5049714;28;20021;-74
2023/01/24 03:04:05;;;;;;;36.60;22.05;;;3.50;99.90;;;;;;5051108;28;20096;-74
2023/01/24 03:06:31;;;;;;;34.78;21.67;;;3.50;99.90;;;;;;5051206;28;20017;-74
2023/01/24 03:08:56;;;;;;;38.67;22.23;;;3.50;99.90;;;;;;5044738;28;20519;-74
2023/01/24 03:11:23;;;;;;;36.15;21.42;;;3.50;99.90;;;;;;5045025;28;20021;-74
2023/01/24 03:35:53;;;;;;;38.03;23.60;;;3.50;99.90;;;;;;5045703;28;20087;-74
2023/01/24 03:41:04;;;;;;;;;;;3.50;99.90;;;;;;5047376;28;20515;-74
2023/01/24 03:43:30;;;;;;;40.80;23.65;;;3.50;99.90;;;;;;5045092;28;19909;-74
2023/01/24 03:45:55;;;;;;;42.30;24.00;;;3.50;99.90;;;;;;5038264;28;20033;-76
2023/01/24 03:48:26;;;;;;;43.05;23.85;;;3.50;99.90;;;;;;5039925;28;20034;-76
2023/01/24 03:53:37;;;;;;;41.22;24.42;;;3.50;99.90;;;;;;5040907;28;20039;-76
2023/01/24 03:56:03;;;;;;;39.78;23.45;;;3.50;99.90;;;;;;5050325;28;20033;-75
2023/01/24 03:58:32;;;;;;;43.53;25.45;;;3.50;99.90;;;;;;5041537;28;20037;-76
2023/01/24 04:00:58;;;;;;;41.25;25.00;;;3.40;99.90;;;;;;5046480;28;20079;-76
2023/01/24 04:03:24;;;;;;;40.45;24.88;;;3.40;99.90;;;;;;5036703;28;20491;-76
2023/01/24 04:05:50;;;;;;;40.83;24.92;;;3.40;99.90;;;;;;5050767;28;20059;-76
2023/01/24 04:08:17;;;;;;;44.47;26.17;;;3.40;99.90;;;;;;5049337;28;20404;-76
2023/01/24 04:10:43;;;;;;;44.45;25.70;;;3.40;99.90;;;;;;5050390;28;20108;-76
2023/01/24 04:13:09;;;;;;;43.05;25.63;;;3.40;99.90;;;;;;5049955;28;20111;-76
2023/01/24 04:15:35;;;;;;;44.72;25.35;;;3.40;99.90;;;;;;5045693;28;20127;-74
2023/01/24 04:18:03;;;;;;;47.13;26.45;;;3.40;99.90;;;;;;5045580;28;20512;-74
2023/01/24 04:20:32;;;;;;;43.45;24.98;;;3.40;99.90;;;;;;5046740;28;20040;-74
2023/01/24 04:23:01;;;;;;;42.83;25.23;;;3.40;99.90;;;;;;5040124;28;20104;-74
2023/01/24 04:25:26;;;;;;;44.08;25.05;;;3.40;99.90;;;;;;5037150;28;20491;-74
2023/01/24 04:27:52;;;;;;;42.58;25.17;;;3.40;99.90;;;;;;5044872;28;20018;-74
2023/01/24 04:30:18;;;;;;;44.60;26.42;;;3.40;99.90;;;;;;5030163;28;20487;-75
2023/01/24 04:32:44;;;;;;;46.15;26.98;;;3.40;99.90;;;;;;5044244;28;20107;-76
2023/01/24 04:35:18;;;;;;;44.05;25.25;;;3.40;99.90;;;;;;5039459;28;20048;-76
2023/01/24 04:37:44;;;;;;;43.65;26.05;;;3.40;99.90;;;;;;5046659;28;20037;-76
2023/01/24 04:40:10;;;;;;;44.20;26.17;;;3.40;99.90;;;;;;5038852;28;20109;-76
2023/01/24 04:42:37;;;;;;;45.58;26.05;;;3.40;99.90;;;;;;5043725;28;20036;-76
2023/01/24 04:45:03;;;;;;;47.67;25.85;;;3.40;99.90;;;;;;5048084;28;20052;-76
2023/01/24 04:47:29;;;;;;;46.03;26.00;;;3.40;99.90;;;;;;5049667;28;20546;-76
2023/01/24 04:49:54;;;;;;;43.83;25.60;;;3.40;99.90;;;;;;5048594;28;20056;-76
2023/01/24 04:52:21;;;;;;;42.97;24.80;;;3.40;99.90;;;;;;5042831;28;20444;-76
2023/01/24 04:54:47;;;;;;;43.95;25.40;;;3.30;99.90;;;;;;5043105;28;20076;-76
2023/01/24 04:57:12;;;;;;;43.58;25.35;;;3.30;99.90;;;;;;5048077;28;20108;-73
2023/01/24 04:59:38;;;;;;;44.85;25.33;;;3.30;99.90;;;;;;5050089;28;20499;-74
2023/01/24 05:02:04;;;;;;;43.40;25.50;;;3.30;99.90;;;;;;5049192;28;20053;-76
2023/01/24 05:04:30;;;;;;;42.95;24.70;;;3.30;99.90;;;;;;5028363;28;20064;-76
2023/01/24 05:06:55;;;;;;;44.85;26.40;;;3.30;99.90;;;;;;5030069;28;20083;-75
2023/01/24 05:09:21;;;;;;;46.17;26.15;;;3.30;99.90;;;;;;5049583;28;20044;-75
2023/01/24 05:11:47;;;;;;;43.50;25.77;;;3.30;99.90;;;;;;5051149;28;20361;-76
2023/01/24 05:14:13;;;;;;;39.30;24.17;;;3.30;99.90;;;;;;5051449;28;20036;-76
2023/01/24 05:16:39;;;;;;;43.22;24.77;;;3.30;99.90;;;;;;5050289;28;20025;-76
2023/01/24 05:19:05;;;;;;;44.35;25.90;;;3.30;99.90;;;;;;5043445;28;20033;-76
2023/01/24 05:21:31;;;;;;;41.95;24.23;;;3.30;99.90;;;;;;5044164;28;20102;-76
2023/01/24 05:23:57;;;;;;;43.60;24.95;;;3.30;99.90;;;;;;5035556;28;20045;-76
2023/01/24 05:26:24;;;;;;;41.42;23.65;;;3.30;99.90;;;;;;5049637;28;20507;-76
2023/01/24 05:28:51;;;;;;;43.13;23.48;;;3.30;99.90;;;;;;5050059;28;20037;-76
2023/01/24 05:31:17;;;;;;;40.83;24.27;;;3.30;99.90;;;;;;5049647;28;20013;-76
2023/01/24 05:33:43;;;;;;;39.35;23.67;;;3.30;99.90;;;;;;5049283;28;20021;-76
2023/01/24 05:36:11;;;;;;;43.30;24.15;;;3.30;99.90;;;;;;5044946;28;20022;-76
2023/01/24 05:38:36;;;;;;;40.63;23.58;;;3.30;99.90;;;;;;5021157;28;20041;-76
2023/01/24 05:41:05;;;;;;;41.53;23.95;;;3.30;99.90;;;;;;5043789;28;20025;-76
2023/01/24 05:43:31;;;;;;;40.13;23.23;;;3.30;99.90;;;;;;5033124;28;20048;-75
2023/01/24 05:46:03;;;;;;;39.45;22.92;;;3.30;99.90;;;;;;5047365;28;20025;-76
2023/01/24 05:48:28;;;;;;;39.38;23.10;;;3.30;99.90;;;;;;5040135;28;20355;-75
2023/01/24 05:51:03;;;;;;;41.67;23.27;;;3.30;99.90;;;;;;5046619;28;20528;-76
2023/01/24 05:53:30;;;;;;;38.72;22.10;;;3.20;99.90;;;;;;5050211;28;20582;-76
2023/01/24 05:56:05;;;;;;;40.08;23.35;;;3.20;99.90;;;;;;5040688;28;20063;-76
2023/01/24 05:58:37;;;;;;;;;;;3.20;99.90;;;;;;5037859;28;20039;-76
2023/01/24 06:01:10;;;;;;;39.03;21.85;;;3.20;99.90;;;;;;5039518;28;19909;-76
2023/01/24 06:03:38;;;;;;;38.10;21.88;;;3.20;99.90;;;;;;5042690;28;20579;-76
2023/01/24 06:06:05;;;;;;;40.20;22.85;;;3.20;99.90;;;;;;5043837;28;20014;-76
2023/01/24 06:08:31;;;;;;;37.65;22.60;;;3.20;99.90;;;;;;5043357;28;20028;-76
2023/01/24 06:11:05;;;;;;;38.15;21.38;;;3.20;99.90;;;;;;5037898;28;20021;-76
2023/01/24 06:13:32;;;;;;;30.50;16.83;;;3.20;99.90;;;;;;5042211;28;20204;-76
2023/01/24 06:16:13;;;;;;;43.15;23.58;;;3.20;99.90;;;;;;5040756;28;20302;-76
2023/01/24 06:18:39;;;;;;;39.00;22.42;;;3.30;99.90;;;;;;5042734;28;20032;-76
2023/01/24 06:21:31;;;;;;;40.22;22.60;;;3.20;99.90;;;;;;5044559;28;20037;-76
2023/01/24 06:23:56;;;;;;;39.75;21.98;;;3.30;99.90;;;;;;5040196;28;20053;-75
2023/01/24 06:26:22;;;;;;;38.85;22.70;;;3.30;99.90;;;;;;5047728;28;20060;-76
2023/01/24 06:28:48;;;;;;;38.05;22.50;;;3.30;99.90;;;;;;5043093;28;20021;-76
2023/01/24 06:31:24;;;;;;;38.17;22.23;;;3.30;99.90;;;;;;5036436;28;20071;-76
2023/01/24 06:34:16;;;;;;;40.45;23.40;;;3.30;99.90;;;;;;5035678;28;20451;-76
2023/01/24 06:37:15;;;;;;;40.10;22.63;;;3.30;99.90;;;;;;5031925;28;20080;-76
2023/01/24 06:39:49;;;;;;;37.67;22.48;;;3.20;99.90;;;;;;5044631;28;20400;-76
2023/01/24 06:42:18;;;;;;;39.47;22.43;;;3.20;99.90;;;;;;5034701;28;20021;-76
2023/01/24 06:44:44;;;;;;;37.55;21.48;;;3.20;99.90;;;;;;5049516;28;20027;-76
2023/01/24 06:47:10;;;;;;;40.50;22.90;;;3.20;99.90;;;;;;5043769;28;20033;-75
2023/01/24 06:49:37;;;;;;;43.42;22.63;;;3.30;99.90;;;;;;5038336;28;20080;-76
2023/01/24 06:52:03;;;;;;;38.67;21.95;;;3.20;99.90;;;;;;5047082;28;20031;-75
2023/01/24 06:54:29;;;;;;;37.60;22.48;;;3.20;99.90;;;;;;5038208;28;20104;-75
2023/01/24 06:56:54;;;;;;;37.75;21.63;;;3.20;99.90;;;;;;5038328;28;20518;-76
2023/01/24 06:59:22;;;;;;;40.08;22.33;;;3.20;99.90;;;;;;5049131;28;20020;-75
2023/01/24 07:01:48;;;;;;;39.38;23.27;;;3.20;99.90;;;;;;5040849;28;20024;-75
2023/01/24 07:04:14;;;;;;;41.75;22.02;;;3.20;99.90;;;;;;5046237;28;20082;-75
2023/01/24 07:06:40;;;;;;;39.13;22.42;;;3.20;99.90;;;;;;5033114;28;20018;-75
2023/01/24 07:09:06;;;;;;;38.55;21.67;;;3.20;99.90;;;;;;5019281;28;20447;-75
2023/01/24 07:11:32;;;;;;;40.30;23.08;;;3.20;99.90;;;;;;5042749;28;20026;-75
2023/01/24 07:13:57;;;;;;;38.72;21.98;;;3.20;99.90;;;;;;5039152;28;20135;-75
2023/01/24 07:16:23;;;;;;;37.08;20.95;;;3.20;99.90;;;;;;5045053;28;20464;-75
2023/01/24 07:18:49;;;;;;;37.00;20.90;;;3.20;99.90;;;;;;5049583;28;20039;-75
2023/01/24 07:21:15;;;;;;;39.70;21.98;;;3.10;99.90;;;;;;5047613;28;20033;-75
2023/01/24 07:23:47;;;;;;;36.55;21.63;;;3.10;99.90;;;;;;5040127;28;20076;-75
2023/01/24 07:26:14;;;;;;;39.22;21.85;;;3.10;99.90;;;;;;5034724;28;20021;-75
2023/01/24 07:28:40;;;;;;;37.88;21.85;;;3.10;99.90;;;;;;5032289;28;20053;-76
2023/01/24 07:31:07;;;;;;;39.00;21.90;;;3.10;99.90;;;;;;5032522;28;20022;-75
2023/01/24 07:33:33;;;;;;;38.45;22.35;;;3.10;99.90;;;;;;5031879;28;20072;-75
2023/01/24 07:35:59;;;;;;;38.83;22.23;;;3.10;99.90;;;;;;5033154;28;20034;-75
2023/01/24 07:38:25;;;;;;;36.38;21.02;;;3.10;99.90;;;;;;5033441;28;20033;-75
2023/01/24 07:40:50;;;;;;;38.80;21.38;;;3.10;99.90;;;;;;5018881;28;20040;-75
2023/01/24 07:43:18;;;;;;;40.90;22.83;;;3.10;99.90;;;;;;5033072;28;20048;-75
2023/01/24 07:45:46;;;;;;;39.42;22.25;;;3.10;99.90;;;;;;5044780;28;20051;-75
2023/01/24 07:48:12;;;;;;;39.00;22.17;;;3.10;99.90;;;;;;5038206;28;20551;-75
2023/01/24 07:50:37;;;;;;;38.78;22.33;;;3.10;99.90;;;;;;5049733;28;20175;-75
2023/01/24 07:53:05;;;;;;;39.80;22.33;;;3.10;99.90;;;;;;5032956;28;20379;-75
2023/01/24 07:55:30;;;;;;;39.10;22.98;;;3.10;99.90;;;;;;5035471;28;20025;-75
2023/01/24 07:58:02;;;;;;;40.55;22.88;;;3.10;99.90;;;;;;5035183;28;20029;-73
2023/01/24 08:00:27;;;;;;;40.53;22.50;;;3.10;99.90;;;;;;5032864;28;20531;-73
2023/01/24 08:02:53;;;;;;;39.85;22.60;;;3.10;99.90;;;;;;5034373;28;20017;-75
2023/01/24 08:05:19;;;;;;;43.90;24.13;;;3.10;99.90;;;;;;5033855;28;20112;-75
2023/01/24 08:07:44;;;;;;;39.22;22.77;;;3.10;99.90;;;;;;5032804;28;20032;-76
2023/01/24 08:10:10;;;;;;;39.72;22.70;;;3.10;99.90;;;;;;5028326;28;20056;-75
2023/01/24 08:12:36;;;;;;;41.63;23.27;;;3.10;99.90;;;;;;5045327;28;20017;-75
2023/01/24 08:15:02;;;;;;;43.80;23.67;;;3.10;99.90;;;;;;5046540;28;20419;-75
2023/01/24 08:17:27;;;;;;;40.58;23.52;;;3.10;99.90;;;;;;5041615;28;20044;-75
2023/01/24 08:19:53;;;;;;;41.10;22.95;;;3.10;99.90;;;;;;5048049;28;20036;-75
2023/01/24 08:22:19;;;;;;;43.35;24.08;;;3.10;99.90;;;;;;5044475;28;20021;-75
2023/01/24 08:24:44;;;;;;;43.88;24.10;;;3.10;99.90;;;;;;5031592;28;20527;-75
2023/01/24 08:27:10;;;;;;;40.25;22.60;;;3.10;99.90;;;;;;5038413;28;20024;-75
2023/01/24 08:29:36;;;;;;;41.72;22.90;;;3.10;99.90;;;;;;5049468;28;20068;-75
2023/01/24 08:32:02;;;;;;;41.63;23.17;;;3.00;99.90;;;;;;5027937;28;20029;-75
2023/01/24 08:34:27;;;;;;;42.33;23.85;;;3.00;99.90;;;;;;5047440;28;20028;-76
2023/01/24 08:36:53;;;;;;;41.33;23.25;;;3.00;99.90;;;;;;5048113;28;20039;-75
2023/01/24 08:39:19;;;;;;;41.63;23.58;;;3.00;99.90;;;;;;5044659;28;20484;-76
2023/01/24 08:41:45;;;;;;;42.58;23.80;;;3.00;99.90;;;;;;5043267;28;20025;-75
2023/01/24 08:44:12;;;;;;;43.20;24.15;;;3.00;99.90;;;;;;5036293;28;20024;-75
2023/01/24 08:46:38;;;;;;;44.42;24.70;;;3.00;99.90;;;;;;5035733;28;20028;-73
2023/01/24 08:49:04;;;;;;;44.65;25.27;;;3.00;99.90;;;;;;5037639;28;20044;-75
2023/01/24 08:51:29;;;;;;;45.55;24.63;;;3.00;99.90;;;;;;5038298;28;20032;-75
2023/01/24 08:53:55;;;;;;;47.05;24.48;;;3.10;99.90;;;;;;5034278;28;20154;-73
2023/01/24 08:56:21;;;;;;;44.22;25.20;;;3.10;99.90;;;;;;5050143;28;20071;-73
2023/01/24 08:58:46;;;;;;;46.85;25.20;;;3.10;99.90;;;;;;5047282;28;20021;-73
2023/01/24 09:01:12;;;;;;;45.42;25.02;;;3.10;99.90;;;;;;5048067;28;20037;-73
2023/01/24 09:03:38;;;;;;;45.80;24.98;;;3.10;99.90;;;;;;5048295;28;20028;-73
2023/01/24 09:06:04;;;;;;;45.33;25.52;;;3.10;99.90;;;;;;5047765;28;20535;-73
2023/01/24 09:08:31;;;;;;;43.88;25.00;;;3.10;99.90;;;;;;5049058;28;20033;-73
2023/01/24 09:11:01;;;;;;;46.38;26.23;;;3.00;99.90;;;;;;5041559;28;20025;-73
2023/01/24 09:13:27;;;;;;;46.58;25.63;;;3.00;99.90;;;;;;5047618;28;20602;-73
2023/01/24 09:15:53;;;;;;;44.55;24.58;;;3.10;99.90;;;;;;5036667;28;20021;-73
2023/01/24 09:18:18;;;;;;;47.95;26.23;;;3.10;99.90;;;;;;5053595;28;20035;-73
2023/01/24 09:20:44;;;;;;;50.63;26.67;;;3.10;99.90;;;;;;5031387;28;20036;-73
2023/01/24 09:23:12;;;;;;;47.30;25.45;;;3.10;99.90;;;;;;5048166;28;20029;-74
2023/01/24 09:25:38;;;;;;;45.28;24.55;;;3.10;99.90;;;;;;5038506;28;20427;-73
2023/01/24 09:28:05;;;;;;;46.13;26.13;;;3.10;99.90;;;;;;5053338;28;20044;-73
2023/01/24 09:30:31;;;;;;;47.20;25.83;;;3.00;99.90;;;;;;5050271;28;20076;-73
2023/01/24 09:32:56;;;;;;;45.63;25.50;;;3.00;99.90;;;;;;5053456;28;20132;-74
2023/01/24 09:35:22;;;;;;;43.88;24.02;;;3.00;99.90;;;;;;5035130;28;20096;-73
2023/01/24 09:37:50;;;;;;;47.00;26.10;;;3.00;99.90;;;;;;5052276;28;20144;-73
2023/01/24 09:40:21;;;;;;;48.67;26.50;;;3.10;99.90;;;;;;5053447;28;20041;-73
2023/01/24 09:43:18;;;;;;;52.08;28.48;;;3.10;99.90;;;;;;5048683;28;20025;-73
2023/01/24 09:46:13;;;;;;;50.72;27.58;;;3.10;99.90;;;;;;5047305;28;20392;-73
2023/01/24 09:48:40;;;;;;;35.80;19.02;;;3.10;99.90;;;;;;5040006;28;20029;-73
2023/01/24 09:51:24;;;;;;;46.92;24.73;;;3.10;99.90;;;;;;5041355;28;20152;-73
2023/01/24 09:53:53;;;;;;;49.03;25.50;;;3.10;99.90;;;;;;5038088;28;20051;-73
2023/01/24 09:56:30;;;;;;;48.90;26.10;;;3.00;99.90;;;;;;5034316;28;20079;-73
2023/01/24 09:59:09;;;;;;;47.72;25.90;;;3.00;99.90;;;;;;5043167;28;20043;-73
2023/01/24 10:01:38;;;;;;;50.35;26.88;;;3.10;99.90;;;;;;5052858;28;20028;-73
2023/01/24 10:04:05;;;;;;;53.33;27.85;;;3.10;99.90;;;;;;5053050;28;20075;-73
2023/01/24 10:06:32;;;;;;;54.25;29.10;;;3.10;99.90;;;;;;5033480;28;20536;-73
2023/01/24 10:09:12;;;;;;;51.75;26.85;;;3.10;99.90;;;;;;5040892;28;20399;-73
2023/01/24 10:12:23;;;;;;;46.92;25.58;;;3.10;99.90;;;;;;5051444;28;20036;-73
2023/01/24 10:15:00;;;;;;;49.78;26.10;;;3.20;99.90;;;;;;4971152;28;20170;-73
2023/01/24 10:17:54;;;;;;;46.88;25.38;;;3.20;99.90;;;;;;4970849;28;20391;-73
2023/01/24 10:20:35;;;;;;;47.17;25.10;;;3.20;99.90;;;;;;4974435;28;20038;-73
2023/01/24 10:23:16;;;;;;;48.00;25.98;;;3.20;99.90;;;;;;4969146;28;20051;-73
2023/01/24 10:25:49;;;;;;;48.80;26.13;;;3.20;99.90;;;;;;4975993;28;20203;-73
2023/01/24 10:28:38;;;;;;;45.88;25.55;;;3.20;99.90;;;;;;4970373;28;20050;-73
2023/01/24 10:31:22;;;;;;;47.15;24.98;;;3.20;99.90;;;;;;4970291;28;20023;-73
2023/01/24 10:33:50;;;;;;;46.05;24.92;;;3.30;99.90;;;;;;4971492;28;20034;-73
2023/01/24 10:36:43;;;;;;;47.78;25.17;;;3.20;99.90;;;;;;4971089;28;20050;-73
2023/01/24 10:39:10;;;;;;;44.20;25.27;;;3.30;99.90;;;;;;4967069;28;20035;-73
2023/01/24 10:41:36;;;;;;;46.58;25.88;;;3.20;99.90;;;;;;4959301;28;20537;-73
2023/01/24 10:44:12;;;;;;;47.10;26.63;;;3.30;99.90;;;;;;4971203;28;20438;-73
2023/01/24 10:46:57;;;;;;;43.08;23.85;;;3.30;99.90;;;;;;4975321;28;20037;-73
2023/01/24 10:49:26;;;;;;;49.20;26.33;;;3.30;99.90;;;;;;5020490;28;20072;-73
2023/01/24 10:52:17;;;;;;;51.05;25.40;;;3.30;99.90;;;;;;5042243;28;20379;-73
2023/01/24 10:54:47;;;;;;;42.33;23.38;;;3.30;99.90;;;;;;5039147;28;20603;-73
2023/01/24 10:57:43;;;;;;;45.53;24.45;;;3.30;99.90;;;;;;5046785;28;20017;-73
2023/01/24 11:00:14;;;;;;;46.50;24.88;;;3.30;99.90;;;;;;5030426;28;20055;-73
2023/01/24 11:02:42;;;;;;;46.55;24.27;;;3.30;99.90;;;;;;5028245;28;20422;-73
2023/01/24 11:05:13;;;;;;;46.72;24.75;;;3.30;99.90;;;;;;5038360;28;20539;-73
2023/01/24 11:07:58;;;;;;;51.00;26.65;;;3.40;99.90;;;;;;5042437;28;20024;-73
2023/01/24 11:10:26;;;;;;;51.03;27.05;;;3.40;99.90;;;;;;5051500;28;20326;-73
2023/01/24 11:12:58;;;;;;;50.20;25.75;;;3.40;99.90;;;;;;5030217;28;20062;-73
2023/01/24 11:15:32;;;;;;;46.22;26.10;;;3.40;99.90;;;;;;5016889;28;20053;-73
2023/01/24 11:18:18;;;;;;;46.75;25.40;;;3.40;99.90;;;;;;5032493;28;20061;-73
2023/01/24 11:20:44;;;;;;;43.88;24.10;;;3.40;99.90;;;;;;5041948;28;20056;-73
2023/01/24 11:23:20;;;;;;;44.90;24.85;;;3.40;99.90;;;;;;5043275;28;20024;-73
2023/01/24 11:25:57;;;;;;;42.83;23.58;;;3.40;99.90;;;;;;5050606;28;20025;-73
2023/01/24 11:28:35;;;;;;;46.83;25.05;;;3.50;99.90;;;;;;5050638;28;20056;-73
2023/01/24 11:31:14;;;;;;;44.20;24.65;;;3.50;99.90;;;;;;5033188;28;20029;-73
2023/01/24 11:33:48;;;;;;;42.63;24.85;;;3.40;99.90;;;;;;5036446;28;20104;-73
2023/01/24 11:36:19;;;;;;;47.15;25.23;;;3.40;99.90;;;;;;5035698;28;20017;-73
2023/01/24 11:38:46;;;;;;;49.38;25.27;;;3.50;99.90;;;;;;5032094;28;20029;-73
2023/01/24 11:41:31;;;;;;;49.25;26.17;;;3.50;99.90;;;;;;5031110;28;20017;-73
2023/01/24 11:44:12;;;;;;;;;;;3.50;99.90;;;;;;5034537;28;20036;-73
2023/01/24 11:46:46;;;;;;;48.05;25.50;;;3.50;99.90;;;;;;5033122;28;20672;-73
2023/01/24 11:50:05;;;;;;;48.63;25.88;;;3.50;99.90;;;;;;5033700;28;20041;-73
2023/01/24 11:52:49;;;;;;;50.00;25.48;;;3.50;99.90;;;;;;4988146;28;20030;-74
2023/01/24 11:55:56;;;;;;;46.33;24.70;;;3.50;99.90;;;;;;4988271;28;20038;-74
2023/01/24 11:59:03;;;;;;;49.53;26.58;;;3.50;99.90;;;;;;4986803;28;20034;-74
2023/01/24 12:01:58;;;;;;;45.63;24.40;;;3.60;99.90;;;;;;4982636;28;20397;-74
2023/01/24 12:04:42;;;;;;;50.60;25.50;;;3.60;99.90;;;;;;4988054;28;20058;-74
2023/01/24 12:07:52;;;;;;;46.13;25.33;;;3.60;99.90;;;;;;4987351;28;20497;-74
2023/01/24 12:10:25;;;;;;;43.78;24.48;;;3.60;99.90;;;;;;4949156;28;20063;-74
2023/01/24 12:13:23;;;;;;;44.95;24.08;;;3.60;99.90;;;;;;4949066;28;20043;-74
2023/01/24 12:16:16;;;;;;;46.50;24.75;;;3.60;99.90;;;;;;4948720;28;20126;-74
2023/01/24 12:18:56;;;;;;;45.97;24.92;;;3.60;99.90;;;;;;4947082;28;20050;-74
2023/01/24 12:21:23;;;;;;;46.97;24.58;;;3.60;99.90;;;;;;4960829;28;20043;-74
2023/01/24 12:24:14;;;;;;;47.17;25.55;;;3.60;99.90;;;;;;4952175;28;20439;-74
2023/01/24 12:26:42;;;;;;;46.90;24.67;;;3.60;99.90;;;;;;4938253;28;20055;-74
2023/01/24 12:29:40;;;;;;;46.72;25.60;;;3.60;99.90;;;;;;4961963;28;20046;-74
2023/01/24 12:32:31;;;;;;;44.20;24.73;;;3.60;99.90;;;;;;4964242;28;20549;-74
2023/01/24 12:35:07;;;;;;;43.42;24.40;;;3.60;99.90;;;;;;4956415;28;20101;-74
2023/01/24 12:37:47;;;;;;;46.60;24.45;;;3.60;99.90;;;;;;4953117;28;20435;-74
2023/01/24 12:40:13;;;;;;;43.25;23.85;;;3.60;99.90;;;;;;4962421;28;20086;-74
2023/01/24 12:43:17;;;;;;;43.03;23.95;;;3.60;99.90;;;;;;4962389;28;20022;-74
2023/01/24 12:46:06;;;;;;;43.97;23.30;;;3.60;99.90;;;;;;5045470;28;20049;-75
2023/01/24 12:48:39;;;;;;;43.15;24.50;;;3.60;99.90;;;;;;5048409;28;20029;-75
2023/01/24 12:51:04;;;;;;;44.95;24.23;;;3.60;99.90;;;;;;5032508;28;20059;-74
2023/01/24 12:53:47;;;;;;;45.78;24.00;;;3.70;99.90;;;;;;5050032;28;20021;-74
2023/01/24 12:56:19;;;;;;;43.63;24.42;;;3.70;99.90;;;;;;5050119;28;20036;-75
2023/01/24 12:58:49;;;;;;;44.92;24.73;;;3.70;99.90;;;;;;5040487;28;20029;-75
2023/01/24 13:01:33;;;;;;;41.15;23.60;;;3.70;99.90;;;;;;5038976;28;20048;-75
2023/01/24 13:04:05;;;;;;;44.00;24.02;;;3.70;99.90;;;;;;5038809;28;20044;-74
2023/01/24 13:07:04;;;;;;;44.13;23.23;;;3.60;99.90;;;;;;5046520;28;20029;-75
2023/01/24 13:09:39;;;;;;;44.33;23.92;;;3.60;99.90;;;;;;5050334;28;20028;-75
2023/01/24 13:12:14;;;;;;;41.50;23.08;;;3.60;99.90;;;;;;5041430;28;20037;-75
2023/01/24 13:15:14;;;;;;;41.78;22.90;;;3.60;99.90;;;;;;5047316;28;20065;-74
2023/01/24 13:17:55;;;;;;;42.10;23.20;;;3.70;99.90;;;;;;5040068;28;20480;-75
2023/01/24 13:20:45;;;;;;;41.40;23.02;;;3.60;99.90;;;;;;5046131;28;20044;-75
2023/01/24 13:23:29;;;;;;;40.83;22.88;;;3.70;99.90;;;;;;5040411;28;20104;-74
2023/01/24 13:26:19;;;;;;;42.78;23.00;;;3.70;99.90;;;;;;5024967;28;20561;-74
2023/01/24 13:29:17;;;;;;;43.72;22.92;;;3.70;99.90;;;;;;5047391;28;20025;-74
2023/01/24 13:32:06;;;;;;;44.10;22.60;;;3.70;99.90;;;;;;5015637;28;20041;-75
2023/01/24 13:34:55;;;;;;;39.97;22.17;;;3.60;99.90;;;;;;5035999;28;20021;-74
2023/01/24 13:37:32;;;;;;;41.67;22.63;;;3.60;99.90;;;;;;5049218;28;20499;-74